sensor_id;sensor_type;location;lat;lon;timestamp;P1;durP1;ratioP1;P2;durP2;ratioP2
3341;SDS011;1684;50.748;6.154;2023-08-21T00:00:13;8.60;;;6.20;;
3341;SDS011;1684;50.748;6.154;2023-08-21T00:02:43;8.43;;;6.00;;
3341;SDS011;1684;50.748;6.154;2023-08-21T00:05:12;5.67;;;4.77;;
3341;SDS011;1684;50.748;6.154;2023-08-21T00:07:40;7.70;;;4.90;;
3341;SDS011;1684;50.748;6.154;2023-08-21T00:10:09;10.50;;;8.17;;
3341;SDS011;1684;50.748;6.154;2023-08-21T00:12:40;10.40;;;8.27;;
3341;SDS011;1684;50.748;6.154;2023-08-21T00:15:08;8.93;;;5.43;;
3341;SDS011;1684;50.748;6.154;2023-08-21T00:17:37;8.67;;;6.97;;
3341;SDS011;1684;50.748;6.154;2023-08-21T00:20:07;11.57;;;8.00;;
3341;SDS011;1684;50.748;6.154;2023-08-21T00:22:36;10.77;;;8.23;;
3341;SDS011;1684;50.748;6.154;2023-08-21T00:25:05;16.40;;;8.20;;
3341;SDS011;1684;50.748;6.154;2023-08-21T00:27:34;17.70;;;8.80;;
3341;SDS011;1684;50.748;6.154;2023-08-21T00:30:02;9.60;;;7.57;;
3341;SDS011;1684;50.748;6.154;2023-08-21T00:32:30;12.53;;;8.70;;
3341;SDS011;1684;50.748;6.154;2023-08-21T00:34:59;12.10;;;7.80;;
3341;SDS011;1684;50.748;6.154;2023-08-21T00:37:28;12.00;;;7.60;;
3341;SDS011;1684;50.748;6.154;2023-08-21T00:39:57;17.03;;;8.07;;
3341;SDS011;1684;50.748;6.154;2023-08-21T00:42:25;8.70;;;7.50;;
3341;SDS011;1684;50.748;6.154;2023-08-21T00:44:53;11.80;;;7.00;;
3341;SDS011;1684;50.748;6.154;2023-08-21T00:47:22;15.03;;;8.00;;
3341;SDS011;1684;50.748;6.154;2023-08-21T00:49:50;10.50;;;7.13;;
3341;SDS011;1684;50.748;6.154;2023-08-21T00:52:18;10.73;;;7.47;;
3341;SDS011;1684;50.748;6.154;2023-08-21T00:54:48;12.27;;;7.90;;
3341;SDS011;1684;50.748;6.154;2023-08-21T00:57:16;10.87;;;8.57;;
3341;SDS011;1684;50.748;6.154;2023-08-21T00:59:45;8.20;;;5.20;;
3341;SDS011;1684;50.748;6.154;2023-08-21T01:02:14;10.73;;;7.53;;
3341;SDS011;1684;50.748;6.154;2023-08-21T01:04:44;12.23;;;8.27;;
3341;SDS011;1684;50.748;6.154;2023-08-21T01:07:13;12.57;;;7.60;;
3341;SDS011;1684;50.748;6.154;2023-08-21T01:09:43;12.23;;;7.57;;
3341;SDS011;1684;50.748;6.154;2023-08-21T01:12:16;9.60;;;7.73;;
3341;SDS011;1684;50.748;6.154;2023-08-21T01:14:49;11.17;;;7.20;;
3341;SDS011;1684;50.748;6.154;2023-08-21T01:17:19;7.03;;;5.53;;
3341;SDS011;1684;50.748;6.154;2023-08-21T01:19:49;14.03;;;7.30;;
3341;SDS011;1684;50.748;6.154;2023-08-21T01:22:17;13.27;;;7.43;;
3341;SDS011;1684;50.748;6.154;2023-08-21T01:24:47;10.27;;;6.67;;
3341;SDS011;1684;50.748;6.154;2023-08-21T01:27:15;7.57;;;5.93;;
3341;SDS011;1684;50.748;6.154;2023-08-21T01:29:47;6.80;;;5.43;;
3341;SDS011;1684;50.748;6.154;2023-08-21T01:32:18;10.80;;;7.97;;
3341;SDS011;1684;50.748;6.154;2023-08-21T01:34:48;8.57;;;6.30;;
3341;SDS011;1684;50.748;6.154;2023-08-21T01:37:18;10.53;;;7.07;;
3341;SDS011;1684;50.748;6.154;2023-08-21T01:39:48;11.03;;;7.00;;
3341;SDS011;1684;50.748;6.154;2023-08-21T01:42:16;14.87;;;7.87;;
3341;SDS011;1684;50.748;6.154;2023-08-21T01:44:44;12.93;;;6.87;;
3341;SDS011;1684;50.748;6.154;2023-08-21T01:47:13;8.10;;;5.80;;
3341;SDS011;1684;50.748;6.154;2023-08-21T01:49:41;10.07;;;6.80;;
3341;SDS011;1684;50.748;6.154;2023-08-21T01:52:09;8.10;;;6.10;;
3341;SDS011;1684;50.748;6.154;2023-08-21T01:54:38;9.87;;;6.53;;
3341;SDS011;1684;50.748;6.154;2023-08-21T01:57:07;16.87;;;6.80;;
3341;SDS011;1684;50.748;6.154;2023-08-21T01:59:35;11.53;;;7.40;;
3341;SDS011;1684;50.748;6.154;2023-08-21T02:02:04;13.60;;;6.90;;
3341;SDS011;1684;50.748;6.154;2023-08-21T02:04:32;11.30;;;7.50;;
3341;SDS011;1684;50.748;6.154;2023-08-21T02:07:00;11.23;;;7.23;;
3341;SDS011;1684;50.748;6.154;2023-08-21T02:09:29;12.63;;;7.30;;
3341;SDS011;1684;50.748;6.154;2023-08-21T02:11:57;8.33;;;6.70;;
3341;SDS011;1684;50.748;6.154;2023-08-21T02:14:27;9.57;;;7.27;;
3341;SDS011;1684;50.748;6.154;2023-08-21T02:16:56;5.90;;;4.90;;
3341;SDS011;1684;50.748;6.154;2023-08-21T02:19:24;8.50;;;5.70;;
3341;SDS011;1684;50.748;6.154;2023-08-21T02:21:52;7.67;;;4.83;;
3341;SDS011;1684;50.748;6.154;2023-08-21T02:24:20;6.50;;;5.43;;
3341;SDS011;1684;50.748;6.154;2023-08-21T02:26:49;8.40;;;5.93;;
3341;SDS011;1684;50.748;6.154;2023-08-21T02:29:17;7.20;;;4.77;;
3341;SDS011;1684;50.748;6.154;2023-08-21T02:31:47;6.57;;;5.23;;
3341;SDS011;1684;50.748;6.154;2023-08-21T02:34:15;15.17;;;6.67;;
3341;SDS011;1684;50.748;6.154;2023-08-21T02:36:43;8.70;;;5.13;;
3341;SDS011;1684;50.748;6.154;2023-08-21T02:39:11;5.80;;;4.63;;
3341;SDS011;1684;50.748;6.154;2023-08-21T02:41:40;6.77;;;5.00;;
3341;SDS011;1684;50.748;6.154;2023-08-21T02:44:08;11.60;;;5.60;;
3341;SDS011;1684;50.748;6.154;2023-08-21T02:46:36;7.50;;;5.53;;
3341;SDS011;1684;50.748;6.154;2023-08-21T02:49:06;7.60;;;5.30;;
3341;SDS011;1684;50.748;6.154;2023-08-21T02:51:34;8.20;;;5.30;;
3341;SDS011;1684;50.748;6.154;2023-08-21T02:54:02;5.70;;;4.43;;
3341;SDS011;1684;50.748;6.154;2023-08-21T02:56:31;10.47;;;4.23;;
3341;SDS011;1684;50.748;6.154;2023-08-21T02:58:59;7.60;;;4.40;;
3341;SDS011;1684;50.748;6.154;2023-08-21T03:01:27;17.70;;;5.00;;
3341;SDS011;1684;50.748;6.154;2023-08-21T03:03:55;17.23;;;5.00;;
3341;SDS011;1684;50.748;6.154;2023-08-21T03:06:25;8.20;;;4.43;;
3341;SDS011;1684;50.748;6.154;2023-08-21T03:08:53;11.17;;;4.90;;
3341;SDS011;1684;50.748;6.154;2023-08-21T03:11:21;13.20;;;4.80;;
3341;SDS011;1684;50.748;6.154;2023-08-21T03:13:50;7.83;;;5.90;;
3341;SDS011;1684;50.748;6.154;2023-08-21T03:16:18;5.67;;;4.50;;
3341;SDS011;1684;50.748;6.154;2023-08-21T03:18:56;9.03;;;4.50;;
3341;SDS011;1684;50.748;6.154;2023-08-21T03:21:26;9.03;;;4.27;;
3341;SDS011;1684;50.748;6.154;2023-08-21T03:23:55;6.30;;;4.70;;
3341;SDS011;1684;50.748;6.154;2023-08-21T03:26:25;9.20;;;5.00;;
3341;SDS011;1684;50.748;6.154;2023-08-21T03:28:54;12.03;;;5.23;;
3341;SDS011;1684;50.748;6.154;2023-08-21T03:31:22;7.87;;;5.57;;
3341;SDS011;1684;50.748;6.154;2023-08-21T03:33:50;10.93;;;4.43;;
3341;SDS011;1684;50.748;6.154;2023-08-21T03:36:19;9.20;;;4.80;;
3341;SDS011;1684;50.748;6.154;2023-08-21T03:38:49;9.00;;;5.70;;
3341;SDS011;1684;50.748;6.154;2023-08-21T03:41:17;8.50;;;5.03;;
3341;SDS011;1684;50.748;6.154;2023-08-21T03:43:45;7.70;;;5.13;;
3341;SDS011;1684;50.748;6.154;2023-08-21T03:46:14;7.30;;;5.27;;
3341;SDS011;1684;50.748;6.154;2023-08-21T03:48:42;8.33;;;5.43;;
3341;SDS011;1684;50.748;6.154;2023-08-21T03:51:10;9.33;;;5.50;;
3341;SDS011;1684;50.748;6.154;2023-08-21T03:53:39;8.87;;;5.10;;
3341;SDS011;1684;50.748;6.154;2023-08-21T03:56:08;8.00;;;5.67;;
3341;SDS011;1684;50.748;6.154;2023-08-21T03:58:36;7.20;;;5.73;;
3341;SDS011;1684;50.748;6.154;2023-08-21T04:01:05;6.87;;;4.80;;
3341;SDS011;1684;50.748;6.154;2023-08-21T04:03:33;7.40;;;5.50;;
3341;SDS011;1684;50.748;6.154;2023-08-21T04:06:02;12.93;;;5.00;;
3341;SDS011;1684;50.748;6.154;2023-08-21T04:08:30;8.40;;;6.30;;
3341;SDS011;1684;50.748;6.154;2023-08-21T04:10:58;11.40;;;6.10;;
3341;SDS011;1684;50.748;6.154;2023-08-21T04:13:28;9.40;;;6.10;;
3341;SDS011;1684;50.748;6.154;2023-08-21T04:15:56;9.10;;;6.80;;
3341;SDS011;1684;50.748;6.154;2023-08-21T04:18:25;9.77;;;6.50;;
3341;SDS011;1684;50.748;6.154;2023-08-21T04:21:07;5.30;;;3.77;;
3341;SDS011;1684;50.748;6.154;2023-08-21T04:23:35;11.30;;;7.30;;
3341;SDS011;1684;50.748;6.154;2023-08-21T04:26:04;8.70;;;7.80;;
3341;SDS011;1684;50.748;6.154;2023-08-21T04:28:35;10.30;;;5.97;;
3341;SDS011;1684;50.748;6.154;2023-08-21T04:31:04;9.70;;;7.00;;
3341;SDS011;1684;50.748;6.154;2023-08-21T04:33:32;10.93;;;6.30;;
3341;SDS011;1684;50.748;6.154;2023-08-21T04:36:01;10.70;;;6.83;;
3341;SDS011;1684;50.748;6.154;2023-08-21T04:38:29;8.60;;;7.10;;
3341;SDS011;1684;50.748;6.154;2023-08-21T04:41:05;9.70;;;6.30;;
3341;SDS011;1684;50.748;6.154;2023-08-21T04:43:36;9.47;;;6.60;;
3341;SDS011;1684;50.748;6.154;2023-08-21T04:46:04;14.60;;;7.60;;
3341;SDS011;1684;50.748;6.154;2023-08-21T04:48:33;10.00;;;7.70;;
3341;SDS011;1684;50.748;6.154;2023-08-21T04:51:01;9.87;;;7.50;;
3341;SDS011;1684;50.748;6.154;2023-08-21T04:53:29;10.20;;;7.27;;
3341;SDS011;1684;50.748;6.154;2023-08-21T04:55:58;11.20;;;6.80;;
3341;SDS011;1684;50.748;6.154;2023-08-21T04:58:27;9.90;;;7.40;;
3341;SDS011;1684;50.748;6.154;2023-08-21T05:00:56;8.47;;;6.47;;
3341;SDS011;1684;50.748;6.154;2023-08-21T05:03:26;11.17;;;6.77;;
3341;SDS011;1684;50.748;6.154;2023-08-21T05:05:54;8.60;;;6.60;;
3341;SDS011;1684;50.748;6.154;2023-08-21T05:08:23;10.23;;;6.73;;
3341;SDS011;1684;50.748;6.154;2023-08-21T05:10:55;9.93;;;6.53;;
3341;SDS011;1684;50.748;6.154;2023-08-21T05:13:23;8.27;;;5.93;;
3341;SDS011;1684;50.748;6.154;2023-08-21T05:15:55;11.50;;;6.60;;
3341;SDS011;1684;50.748;6.154;2023-08-21T05:18:25;11.20;;;6.37;;
3341;SDS011;1684;50.748;6.154;2023-08-21T05:20:55;11.20;;;7.37;;
3341;SDS011;1684;50.748;6.154;2023-08-21T05:23:23;8.40;;;6.43;;
3341;SDS011;1684;50.748;6.154;2023-08-21T05:25:52;8.43;;;7.37;;
3341;SDS011;1684;50.748;6.154;2023-08-21T05:28:20;9.67;;;6.40;;
3341;SDS011;1684;50.748;6.154;2023-08-21T05:30:48;13.00;;;7.30;;
3341;SDS011;1684;50.748;6.154;2023-08-21T05:33:17;12.83;;;7.30;;
3341;SDS011;1684;50.748;6.154;2023-08-21T05:35:46;9.23;;;6.60;;
3341;SDS011;1684;50.748;6.154;2023-08-21T05:38:15;11.33;;;7.30;;
3341;SDS011;1684;50.748;6.154;2023-08-21T05:40:43;11.73;;;8.00;;
3341;SDS011;1684;50.748;6.154;2023-08-21T05:43:11;13.63;;;8.27;;
3341;SDS011;1684;50.748;6.154;2023-08-21T05:45:39;11.30;;;7.73;;
3341;SDS011;1684;50.748;6.154;2023-08-21T05:48:08;13.67;;;7.57;;
3341;SDS011;1684;50.748;6.154;2023-08-21T05:50:36;11.30;;;8.27;;
3341;SDS011;1684;50.748;6.154;2023-08-21T05:53:06;15.07;;;8.00;;
3341;SDS011;1684;50.748;6.154;2023-08-21T05:55:36;15.30;;;8.07;;
3341;SDS011;1684;50.748;6.154;2023-08-21T05:58:04;14.60;;;7.13;;
3341;SDS011;1684;50.748;6.154;2023-08-21T06:00:37;10.17;;;8.03;;
3341;SDS011;1684;50.748;6.154;2023-08-21T06:03:09;10.77;;;7.90;;
3341;SDS011;1684;50.748;6.154;2023-08-21T06:05:38;14.03;;;9.20;;
3341;SDS011;1684;50.748;6.154;2023-08-21T06:08:07;12.80;;;9.43;;
3341;SDS011;1684;50.748;6.154;2023-08-21T06:10:36;11.70;;;8.17;;
3341;SDS011;1684;50.748;6.154;2023-08-21T06:13:04;19.90;;;11.17;;
3341;SDS011;1684;50.748;6.154;2023-08-21T06:15:32;17.70;;;10.20;;
3341;SDS011;1684;50.748;6.154;2023-08-21T06:18:00;19.00;;;12.50;;
3341;SDS011;1684;50.748;6.154;2023-08-21T06:20:29;17.03;;;12.10;;
3341;SDS011;1684;50.748;6.154;2023-08-21T06:22:59;15.90;;;12.23;;
3341;SDS011;1684;50.748;6.154;2023-08-21T06:25:31;17.60;;;12.90;;
3341;SDS011;1684;50.748;6.154;2023-08-21T06:28:00;18.63;;;13.93;;
3341;SDS011;1684;50.748;6.154;2023-08-21T06:30:29;22.03;;;15.00;;
3341;SDS011;1684;50.748;6.154;2023-08-21T06:32:57;21.93;;;13.33;;
3341;SDS011;1684;50.748;6.154;2023-08-21T06:35:26;15.70;;;12.90;;
3341;SDS011;1684;50.748;6.154;2023-08-21T06:37:54;21.60;;;13.57;;
3341;SDS011;1684;50.748;6.154;2023-08-21T06:40:22;22.20;;;15.70;;
3341;SDS011;1684;50.748;6.154;2023-08-21T06:42:53;17.40;;;14.63;;
3341;SDS011;1684;50.748;6.154;2023-08-21T06:45:22;20.97;;;16.13;;
3341;SDS011;1684;50.748;6.154;2023-08-21T06:47:57;19.23;;;14.50;;
3341;SDS011;1684;50.748;6.154;2023-08-21T06:50:26;12.87;;;10.77;;
3341;SDS011;1684;50.748;6.154;2023-08-21T06:52:54;18.30;;;14.50;;
3341;SDS011;1684;50.748;6.154;2023-08-21T06:55:22;17.70;;;13.97;;
3341;SDS011;1684;50.748;6.154;2023-08-21T06:57:51;21.13;;;15.60;;
3341;SDS011;1684;50.748;6.154;2023-08-21T07:03:27;15.40;;;12.87;;
3341;SDS011;1684;50.748;6.154;2023-08-21T07:05:56;14.03;;;11.17;;
3341;SDS011;1684;50.748;6.154;2023-08-21T07:08:29;9.00;;;7.97;;
3341;SDS011;1684;50.748;6.154;2023-08-21T07:11:01;12.97;;;11.67;;
3341;SDS011;1684;50.748;6.154;2023-08-21T07:13:45;8.27;;;6.20;;
3341;SDS011;1684;50.748;6.154;2023-08-21T07:16:13;10.17;;;8.37;;
3341;SDS011;1684;50.748;6.154;2023-08-21T07:18:43;14.60;;;12.90;;
3341;SDS011;1684;50.748;6.154;2023-08-21T07:21:11;21.97;;;12.03;;
3341;SDS011;1684;50.748;6.154;2023-08-21T07:23:57;12.30;;;10.27;;
3341;SDS011;1684;50.748;6.154;2023-08-21T07:26:26;12.10;;;9.53;;
3341;SDS011;1684;50.748;6.154;2023-08-21T07:28:55;15.33;;;12.43;;
3341;SDS011;1684;50.748;6.154;2023-08-21T07:31:25;13.77;;;11.73;;
3341;SDS011;1684;50.748;6.154;2023-08-21T07:33:55;11.77;;;10.53;;
3341;SDS011;1684;50.748;6.154;2023-08-21T07:36:23;15.03;;;11.70;;
3341;SDS011;1684;50.748;6.154;2023-08-21T07:38:52;11.73;;;7.47;;
3341;SDS011;1684;50.748;6.154;2023-08-21T07:41:20;8.93;;;7.67;;
3341;SDS011;1684;50.748;6.154;2023-08-21T07:43:52;15.00;;;10.10;;
3341;SDS011;1684;50.748;6.154;2023-08-21T07:46:20;16.80;;;12.40;;
3341;SDS011;1684;50.748;6.154;2023-08-21T07:48:49;13.50;;;10.23;;
3341;SDS011;1684;50.748;6.154;2023-08-21T07:51:18;9.93;;;8.43;;
3341;SDS011;1684;50.748;6.154;2023-08-21T07:53:47;14.33;;;9.70;;
3341;SDS011;1684;50.748;6.154;2023-08-21T07:56:15;9.87;;;6.40;;
3341;SDS011;1684;50.748;6.154;2023-08-21T07:58:43;9.20;;;5.50;;
3341;SDS011;1684;50.748;6.154;2023-08-21T08:01:12;12.13;;;8.43;;
3341;SDS011;1684;50.748;6.154;2023-08-21T08:03:40;8.43;;;7.33;;
3341;SDS011;1684;50.748;6.154;2023-08-21T08:06:09;13.50;;;9.73;;
3341;SDS011;1684;50.748;6.154;2023-08-21T08:08:40;12.67;;;9.83;;
3341;SDS011;1684;50.748;6.154;2023-08-21T08:11:08;14.73;;;8.00;;
3341;SDS011;1684;50.748;6.154;2023-08-21T08:13:36;9.00;;;7.33;;
3341;SDS011;1684;50.748;6.154;2023-08-21T08:16:04;15.37;;;9.73;;
3341;SDS011;1684;50.748;6.154;2023-08-21T08:18:33;15.23;;;10.30;;
3341;SDS011;1684;50.748;6.154;2023-08-21T08:21:04;8.67;;;7.40;;
3341;SDS011;1684;50.748;6.154;2023-08-21T08:23:34;7.80;;;6.83;;
3341;SDS011;1684;50.748;6.154;2023-08-21T08:26:10;12.43;;;9.93;;
3341;SDS011;1684;50.748;6.154;2023-08-21T08:28:50;15.90;;;12.27;;
3341;SDS011;1684;50.748;6.154;2023-08-21T08:31:19;10.43;;;8.70;;
3341;SDS011;1684;50.748;6.154;2023-08-21T08:33:50;13.37;;;8.87;;
3341;SDS011;1684;50.748;6.154;2023-08-21T08:36:18;7.13;;;5.47;;
3341;SDS011;1684;50.748;6.154;2023-08-21T08:38:46;6.93;;;5.97;;
3341;SDS011;1684;50.748;6.154;2023-08-21T08:41:19;13.27;;;9.60;;
3341;SDS011;1684;50.748;6.154;2023-08-21T08:43:55;8.57;;;6.77;;
3341;SDS011;1684;50.748;6.154;2023-08-21T08:46:25;7.53;;;6.17;;
3341;SDS011;1684;50.748;6.154;2023-08-21T08:48:53;12.20;;;8.43;;
3341;SDS011;1684;50.748;6.154;2023-08-21T08:51:22;9.03;;;6.53;;
3341;SDS011;1684;50.748;6.154;2023-08-21T08:53:50;7.87;;;6.23;;
3341;SDS011;1684;50.748;6.154;2023-08-21T08:56:20;9.13;;;6.47;;
3341;SDS011;1684;50.748;6.154;2023-08-21T08:58:48;9.23;;;6.27;;
3341;SDS011;1684;50.748;6.154;2023-08-21T09:01:16;10.67;;;7.80;;
3341;SDS011;1684;50.748;6.154;2023-08-21T09:03:45;14.93;;;9.63;;
3341;SDS011;1684;50.748;6.154;2023-08-21T09:06:16;14.50;;;9.83;;
3341;SDS011;1684;50.748;6.154;2023-08-21T09:08:53;11.43;;;8.43;;
3341;SDS011;1684;50.748;6.154;2023-08-21T09:11:22;10.23;;;7.27;;
3341;SDS011;1684;50.748;6.154;2023-08-21T09:13:51;8.67;;;5.90;;
3341;SDS011;1684;50.748;6.154;2023-08-21T09:16:22;9.17;;;7.30;;
3341;SDS011;1684;50.748;6.154;2023-08-21T09:18:52;15.03;;;11.90;;
3341;SDS011;1684;50.748;6.154;2023-08-21T09:21:21;9.90;;;7.07;;
3341;SDS011;1684;50.748;6.154;2023-08-21T09:23:51;9.70;;;6.50;;
3341;SDS011;1684;50.748;6.154;2023-08-21T09:26:25;15.63;;;12.17;;
3341;SDS011;1684;50.748;6.154;2023-08-21T09:28:54;14.67;;;11.40;;
3341;SDS011;1684;50.748;6.154;2023-08-21T09:31:22;8.73;;;6.33;;
3341;SDS011;1684;50.748;6.154;2023-08-21T09:33:57;12.13;;;7.57;;
3341;SDS011;1684;50.748;6.154;2023-08-21T09:36:27;13.13;;;7.50;;
3341;SDS011;1684;50.748;6.154;2023-08-21T09:38:55;7.40;;;6.20;;
3341;SDS011;1684;50.748;6.154;2023-08-21T09:41:25;10.27;;;6.93;;
3341;SDS011;1684;50.748;6.154;2023-08-21T09:43:59;10.13;;;7.00;;
3341;SDS011;1684;50.748;6.154;2023-08-21T09:46:30;11.93;;;7.87;;
3341;SDS011;1684;50.748;6.154;2023-08-21T09:48:58;16.00;;;11.30;;
3341;SDS011;1684;50.748;6.154;2023-08-21T09:51:29;8.43;;;6.33;;
3341;SDS011;1684;50.748;6.154;2023-08-21T09:53:58;17.10;;;11.57;;
3341;SDS011;1684;50.748;6.154;2023-08-21T09:56:29;8.60;;;7.67;;
3341;SDS011;1684;50.748;6.154;2023-08-21T09:58:59;8.80;;;7.00;;
3341;SDS011;1684;50.748;6.154;2023-08-21T10:01:27;9.70;;;6.50;;
3341;SDS011;1684;50.748;6.154;2023-08-21T10:03:56;10.57;;;8.70;;
3341;SDS011;1684;50.748;6.154;2023-08-21T10:06:26;13.30;;;10.87;;
3341;SDS011;1684;50.748;6.154;2023-08-21T10:08:54;10.63;;;8.03;;
3341;SDS011;1684;50.748;6.154;2023-08-21T10:11:23;8.83;;;6.07;;
3341;SDS011;1684;50.748;6.154;2023-08-21T10:13:52;9.00;;;6.60;;
3341;SDS011;1684;50.748;6.154;2023-08-21T10:16:21;10.90;;;6.93;;
3341;SDS011;1684;50.748;6.154;2023-08-21T10:18:51;8.10;;;7.13;;
3341;SDS011;1684;50.748;6.154;2023-08-21T10:21:20;14.03;;;11.93;;
3341;SDS011;1684;50.748;6.154;2023-08-21T10:23:52;12.57;;;7.03;;
3341;SDS011;1684;50.748;6.154;2023-08-21T10:26:22;19.03;;;11.30;;
3341;SDS011;1684;50.748;6.154;2023-08-21T10:28:59;9.93;;;6.13;;
3341;SDS011;1684;50.748;6.154;2023-08-21T10:31:31;8.63;;;6.67;;
3341;SDS011;1684;50.748;6.154;2023-08-21T10:34:00;9.30;;;7.07;;
3341;SDS011;1684;50.748;6.154;2023-08-21T10:39:16;17.43;;;10.77;;
3341;SDS011;1684;50.748;6.154;2023-08-21T10:41:53;8.50;;;6.70;;
3341;SDS011;1684;50.748;6.154;2023-08-21T10:44:35;10.93;;;9.60;;
3341;SDS011;1684;50.748;6.154;2023-08-21T10:47:14;7.87;;;5.60;;
3341;SDS011;1684;50.748;6.154;2023-08-21T10:49:43;11.07;;;7.80;;
3341;SDS011;1684;50.748;6.154;2023-08-21T10:52:12;9.57;;;7.10;;
3341;SDS011;1684;50.748;6.154;2023-08-21T10:54:46;16.53;;;12.10;;
3341;SDS011;1684;50.748;6.154;2023-08-21T10:57:14;14.43;;;11.80;;
3341;SDS011;1684;50.748;6.154;2023-08-21T10:59:50;9.47;;;6.87;;
3341;SDS011;1684;50.748;6.154;2023-08-21T11:02:19;17.53;;;12.80;;
3341;SDS011;1684;50.748;6.154;2023-08-21T11:04:50;10.30;;;7.70;;
3341;SDS011;1684;50.748;6.154;2023-08-21T11:07:18;14.37;;;11.00;;
3341;SDS011;1684;50.748;6.154;2023-08-21T11:09:47;20.43;;;12.13;;
3341;SDS011;1684;50.748;6.154;2023-08-21T11:12:16;8.37;;;7.17;;
3341;SDS011;1684;50.748;6.154;2023-08-21T11:14:44;8.97;;;6.30;;
3341;SDS011;1684;50.748;6.154;2023-08-21T11:17:13;7.80;;;6.57;;
3341;SDS011;1684;50.748;6.154;2023-08-21T11:19:43;9.77;;;6.97;;
3341;SDS011;1684;50.748;6.154;2023-08-21T11:22:11;7.93;;;6.40;;
3341;SDS011;1684;50.748;6.154;2023-08-21T11:24:43;9.23;;;7.63;;
3341;SDS011;1684;50.748;6.154;2023-08-21T11:27:13;15.33;;;11.83;;
3341;SDS011;1684;50.748;6.154;2023-08-21T11:29:42;7.90;;;6.40;;
3341;SDS011;1684;50.748;6.154;2023-08-21T11:32:12;9.30;;;7.10;;
3341;SDS011;1684;50.748;6.154;2023-08-21T11:34:40;8.27;;;6.50;;
3341;SDS011;1684;50.748;6.154;2023-08-21T11:37:11;9.00;;;6.40;;
3341;SDS011;1684;50.748;6.154;2023-08-21T11:39:40;9.43;;;7.30;;
3341;SDS011;1684;50.748;6.154;2023-08-21T11:42:09;7.27;;;6.03;;
3341;SDS011;1684;50.748;6.154;2023-08-21T11:44:42;8.63;;;7.63;;
3341;SDS011;1684;50.748;6.154;2023-08-21T11:47:11;12.13;;;6.27;;
3341;SDS011;1684;50.748;6.154;2023-08-21T11:49:40;10.30;;;6.20;;
3341;SDS011;1684;50.748;6.154;2023-08-21T11:52:10;8.13;;;6.50;;
3341;SDS011;1684;50.748;6.154;2023-08-21T11:54:39;9.13;;;5.87;;
3341;SDS011;1684;50.748;6.154;2023-08-21T11:57:08;9.00;;;6.20;;
3341;SDS011;1684;50.748;6.154;2023-08-21T11:59:37;15.60;;;6.40;;
3341;SDS011;1684;50.748;6.154;2023-08-21T12:02:09;7.33;;;5.63;;
3341;SDS011;1684;50.748;6.154;2023-08-21T12:04:37;6.90;;;5.20;;
3341;SDS011;1684;50.748;6.154;2023-08-21T12:07:11;13.20;;;5.70;;
3341;SDS011;1684;50.748;6.154;2023-08-21T12:09:45;9.70;;;6.03;;
3341;SDS011;1684;50.748;6.154;2023-08-21T12:12:14;6.50;;;5.30;;
3341;SDS011;1684;50.748;6.154;2023-08-21T12:14:42;5.70;;;4.60;;
3341;SDS011;1684;50.748;6.154;2023-08-21T12:17:11;10.03;;;5.57;;
3341;SDS011;1684;50.748;6.154;2023-08-21T12:19:39;12.00;;;5.33;;
3341;SDS011;1684;50.748;6.154;2023-08-21T12:22:08;9.13;;;5.93;;
3341;SDS011;1684;50.748;6.154;2023-08-21T12:24:37;9.47;;;5.10;;
3341;SDS011;1684;50.748;6.154;2023-08-21T12:27:06;4.50;;;3.87;;
3341;SDS011;1684;50.748;6.154;2023-08-21T12:29:34;8.90;;;4.50;;
3341;SDS011;1684;50.748;6.154;2023-08-21T12:32:02;5.23;;;4.70;;
3341;SDS011;1684;50.748;6.154;2023-08-21T12:34:31;8.40;;;5.00;;
3341;SDS011;1684;50.748;6.154;2023-08-21T12:36:59;9.43;;;3.83;;
3341;SDS011;1684;50.748;6.154;2023-08-21T12:39:27;4.63;;;3.90;;
3341;SDS011;1684;50.748;6.154;2023-08-21T12:41:57;5.00;;;4.10;;
3341;SDS011;1684;50.748;6.154;2023-08-21T12:44:25;6.93;;;3.90;;
3341;SDS011;1684;50.748;6.154;2023-08-21T12:46:53;4.67;;;3.60;;
3341;SDS011;1684;50.748;6.154;2023-08-21T12:49:21;5.77;;;3.90;;
3341;SDS011;1684;50.748;6.154;2023-08-21T12:51:50;6.13;;;4.40;;
3341;SDS011;1684;50.748;6.154;2023-08-21T12:54:18;6.60;;;3.40;;
3341;SDS011;1684;50.748;6.154;2023-08-21T12:56:47;6.87;;;3.80;;
3341;SDS011;1684;50.748;6.154;2023-08-21T12:59:16;6.60;;;3.60;;
3341;SDS011;1684;50.748;6.154;2023-08-21T13:01:45;6.80;;;3.80;;
3341;SDS011;1684;50.748;6.154;2023-08-21T13:04:14;7.77;;;4.30;;
3341;SDS011;1684;50.748;6.154;2023-08-21T13:06:42;6.20;;;3.80;;
3341;SDS011;1684;50.748;6.154;2023-08-21T13:09:10;7.07;;;4.20;;
3341;SDS011;1684;50.748;6.154;2023-08-21T13:11:39;7.80;;;4.23;;
3341;SDS011;1684;50.748;6.154;2023-08-21T13:14:07;6.95;;;3.90;;
3341;SDS011;1684;50.748;6.154;2023-08-21T13:16:37;13.17;;;4.67;;
3341;SDS011;1684;50.748;6.154;2023-08-21T13:19:06;9.50;;;4.07;;
3341;SDS011;1684;50.748;6.154;2023-08-21T13:21:34;7.67;;;4.87;;
3341;SDS011;1684;50.748;6.154;2023-08-21T13:24:03;7.37;;;3.80;;
3341;SDS011;1684;50.748;6.154;2023-08-21T13:26:34;10.80;;;3.23;;
3341;SDS011;1684;50.748;6.154;2023-08-21T13:29:02;7.53;;;2.77;;
3341;SDS011;1684;50.748;6.154;2023-08-21T13:31:30;5.40;;;2.93;;
3341;SDS011;1684;50.748;6.154;2023-08-21T13:34:00;6.80;;;3.63;;
3341;SDS011;1684;50.748;6.154;2023-08-21T13:36:28;4.20;;;2.70;;
3341;SDS011;1684;50.748;6.154;2023-08-21T13:38:57;5.93;;;3.37;;
3341;SDS011;1684;50.748;6.154;2023-08-21T13:41:25;5.40;;;3.17;;
3341;SDS011;1684;50.748;6.154;2023-08-21T13:43:54;7.37;;;3.07;;
3341;SDS011;1684;50.748;6.154;2023-08-21T13:46:25;6.90;;;3.43;;
3341;SDS011;1684;50.748;6.154;2023-08-21T13:48:53;7.43;;;3.73;;
3341;SDS011;1684;50.748;6.154;2023-08-21T13:51:23;6.03;;;3.27;;
3341;SDS011;1684;50.748;6.154;2023-08-21T13:53:51;7.23;;;3.00;;
3341;SDS011;1684;50.748;6.154;2023-08-21T13:56:19;4.03;;;2.80;;
3341;SDS011;1684;50.748;6.154;2023-08-21T13:58:48;5.80;;;3.70;;
3341;SDS011;1684;50.748;6.154;2023-08-21T14:01:16;10.47;;;3.60;;
3341;SDS011;1684;50.748;6.154;2023-08-21T14:03:44;6.93;;;3.13;;
3341;SDS011;1684;50.748;6.154;2023-08-21T14:06:13;6.30;;;3.00;;
3341;SDS011;1684;50.748;6.154;2023-08-21T14:08:42;4.60;;;2.70;;
3341;SDS011;1684;50.748;6.154;2023-08-21T14:11:10;10.00;;;2.83;;
3341;SDS011;1684;50.748;6.154;2023-08-21T14:13:39;7.73;;;3.20;;
3341;SDS011;1684;50.748;6.154;2023-08-21T14:16:07;4.90;;;2.90;;
3341;SDS011;1684;50.748;6.154;2023-08-21T14:18:35;6.07;;;2.77;;
3341;SDS011;1684;50.748;6.154;2023-08-21T14:21:03;6.93;;;3.00;;
3341;SDS011;1684;50.748;6.154;2023-08-21T14:23:32;5.20;;;2.73;;
3341;SDS011;1684;50.748;6.154;2023-08-21T14:26:01;3.87;;;2.60;;
3341;SDS011;1684;50.748;6.154;2023-08-21T14:28:30;6.13;;;2.37;;
3341;SDS011;1684;50.748;6.154;2023-08-21T14:30:58;5.10;;;2.83;;
3341;SDS011;1684;50.748;6.154;2023-08-21T14:33:26;4.33;;;2.47;;
3341;SDS011;1684;50.748;6.154;2023-08-21T14:35:54;7.27;;;3.60;;
3341;SDS011;1684;50.748;6.154;2023-08-21T14:38:23;4.50;;;2.53;;
3341;SDS011;1684;50.748;6.154;2023-08-21T14:40:52;4.90;;;2.40;;
3341;SDS011;1684;50.748;6.154;2023-08-21T14:43:22;5.60;;;2.57;;
3341;SDS011;1684;50.748;6.154;2023-08-21T14:45:51;6.03;;;2.30;;
3341;SDS011;1684;50.748;6.154;2023-08-21T14:48:19;9.80;;;3.90;;
3341;SDS011;1684;50.748;6.154;2023-08-21T14:50:48;10.33;;;3.83;;
3341;SDS011;1684;50.748;6.154;2023-08-21T14:53:16;4.60;;;3.27;;
3341;SDS011;1684;50.748;6.154;2023-08-21T14:55:44;6.77;;;4.10;;
3341;SDS011;1684;50.748;6.154;2023-08-21T14:58:14;4.80;;;2.73;;
3341;SDS011;1684;50.748;6.154;2023-08-21T15:00:44;5.43;;;2.97;;
3341;SDS011;1684;50.748;6.154;2023-08-21T15:03:15;4.90;;;2.60;;
3341;SDS011;1684;50.748;6.154;2023-08-21T15:05:45;5.73;;;3.37;;
3341;SDS011;1684;50.748;6.154;2023-08-21T15:08:13;6.23;;;3.10;;
3341;SDS011;1684;50.748;6.154;2023-08-21T15:10:41;3.63;;;2.83;;
3341;SDS011;1684;50.748;6.154;2023-08-21T15:13:09;5.53;;;3.10;;
3341;SDS011;1684;50.748;6.154;2023-08-21T15:15:37;5.13;;;2.90;;
3341;SDS011;1684;50.748;6.154;2023-08-21T15:18:07;4.30;;;3.00;;
3341;SDS011;1684;50.748;6.154;2023-08-21T15:20:35;5.10;;;2.80;;
3341;SDS011;1684;50.748;6.154;2023-08-21T15:23:04;3.30;;;2.60;;
3341;SDS011;1684;50.748;6.154;2023-08-21T15:25:32;5.37;;;3.10;;